createdAt,value
2019-02-20T00:08:32.753Z,7.20
2019-02-20T00:18:38.745Z,9.03
2019-02-20T00:28:44.676Z,10.73
2019-02-20T00:38:50.591Z,10.43
2019-02-20T00:48:58.004Z,9.83
2019-02-20T00:59:03.922Z,10.93
2019-02-20T01:09:09.798Z,11.13
2019-02-20T01:19:15.840Z,10.83
2019-02-20T01:29:21.630Z,11.37
2019-02-20T01:39:27.696Z,9.03
2019-02-20T01:49:34.110Z,9.73
2019-02-20T01:59:40.440Z,10.37
2019-02-20T02:09:46.453Z,9.77
2019-02-20T02:19:52.295Z,8.80
2019-02-20T02:29:58.293Z,9.57
2019-02-20T02:40:07.466Z,9.87
2019-02-20T02:50:13.203Z,8.77
2019-02-20T03:00:19.403Z,10.23
2019-02-20T03:10:25.482Z,9.53
2019-02-20T03:20:31.375Z,8.20
2019-02-20T03:30:37.092Z,8.67
2019-02-20T03:40:43.021Z,7.73
2019-02-20T03:50:55.877Z,8.47
2019-02-20T04:01:01.571Z,7.63
2019-02-20T04:11:07.372Z,8.17
2019-02-20T04:21:13.520Z,7.83
2019-02-20T04:31:19.381Z,8.00
2019-02-20T04:41:25.533Z,8.03
2019-02-20T04:51:31.236Z,8.97
2019-02-20T05:01:37.512Z,9.20
2019-02-20T05:11:43.567Z,9.00
2019-02-20T05:21:49.324Z,9.37
2019-02-20T05:31:55.337Z,11.97
2019-02-20T05:42:01.302Z,11.47
2019-02-20T05:52:07.116Z,10.23
2019-02-20T06:02:14.395Z,9.67
2019-02-20T06:12:20.288Z,10.93
2019-02-20T06:22:26.028Z,11.83
2019-02-20T06:32:32.007Z,11.93
2019-02-20T06:42:37.957Z,12.27
2019-02-20T06:52:45.559Z,11.43
2019-02-20T07:02:51.249Z,13.07
2019-02-20T07:13:00.181Z,12.17
2019-02-20T07:23:21.352Z,11.87
2019-02-20T07:33:27.285Z,13.43
2019-02-20T07:43:33.432Z,11.73
2019-02-20T07:53:39.196Z,13.43
2019-02-20T08:03:45.046Z,13.03
2019-02-20T08:13:50.810Z,12.57
2019-02-20T08:23:56.501Z,12.47
2019-02-20T08:34:02.229Z,12.67
2019-02-20T08:44:10.379Z,12.63
2019-02-20T08:54:16.168Z,11.70
2019-02-20T09:04:21.877Z,10.30
2019-02-20T09:14:29.412Z,14.03
2019-02-20T09:24:35.118Z,12.23
2019-02-20T09:34:40.880Z,13.67
2019-02-20T09:44:47.027Z,15.73
2019-02-20T09:54:52.834Z,13.53
2019-02-20T10:04:58.529Z,14.90
2019-02-20T10:15:12.349Z,13.87
2019-02-20T10:25:18.127Z,15.57
2019-02-20T10:35:23.725Z,12.97
2019-02-20T10:45:29.415Z,14.30
2019-02-20T10:55:35.221Z,11.90
2019-02-20T11:05:41.034Z,12.20
2019-02-20T11:15:46.907Z,12.20
2019-02-20T11:25:52.544Z,13.53
2019-02-20T11:35:59.604Z,12.43
2019-02-20T11:46:05.871Z,11.10
2019-02-20T11:56:12.353Z,10.73
2019-02-20T12:06:18.305Z,10.50
2019-02-20T12:16:24.208Z,10.57
2019-02-20T12:26:35.140Z,9.63
2019-02-20T12:36:37.357Z,9.13
2019-02-20T12:46:43.152Z,8.83
2019-02-20T12:56:48.955Z,7.83
2019-02-20T13:06:59.579Z,7.27
2019-02-20T13:17:02.105Z,6.03
2019-02-20T13:27:10.268Z,6.70
2019-02-20T13:37:17.629Z,6.73
2019-02-20T13:47:25.809Z,7.67
2019-02-20T13:57:31.899Z,6.50
2019-02-20T14:07:39.493Z,7.20
2019-02-20T14:17:45.310Z,6.10
2019-02-20T14:27:51.191Z,6.30
2019-02-20T14:37:59.635Z,7.00
2019-02-20T14:48:05.490Z,6.67
2019-02-20T14:58:11.230Z,7.63
2019-02-20T15:08:17.709Z,7.23
2019-02-20T15:18:23.525Z,7.93
2019-02-20T15:28:29.313Z,9.23
2019-02-20T15:38:35.453Z,10.13
2019-02-20T15:48:55.877Z,9.43
2019-02-20T15:59:01.671Z,9.37
2019-02-20T16:09:08.546Z,9.60
2019-02-20T16:19:15.853Z,11.90
2019-02-20T16:29:21.657Z,14.50
2019-02-20T16:39:27.811Z,13.43
2019-02-20T16:49:33.663Z,14.50
2019-02-20T16:59:39.385Z,13.63
2019-02-20T17:09:45.260Z,13.60
2019-02-20T17:19:51.113Z,13.27
2019-02-20T17:29:57.450Z,12.63
2019-02-20T17:40:03.077Z,14.20
2019-02-20T17:50:11.688Z,12.50
2019-02-20T18:00:20.600Z,14.73
2019-02-20T18:10:26.229Z,12.87
2019-02-20T18:20:32.060Z,12.23
2019-02-20T18:30:38.013Z,12.30
2019-02-20T18:40:46.154Z,13.10
2019-02-20T18:50:53.186Z,12.60
2019-02-20T19:00:59.213Z,14.00
2019-02-20T19:11:08.206Z,13.63
2019-02-20T19:21:33.926Z,13.77
2019-02-20T19:31:42.693Z,14.13
2019-02-20T19:42:00.511Z,12.67
2019-02-20T19:52:32.390Z,14.47
2019-02-20T20:02:47.121Z,13.40
2019-02-20T20:13:24.927Z,17.63
2019-02-20T20:23:50.177Z,14.97
2019-02-20T20:34:05.078Z,13.73
2019-02-20T20:44:29.546Z,12.20
2019-02-20T20:54:44.865Z,13.50
2019-02-20T21:05:14.834Z,11.40
2019-02-20T21:15:26.586Z,12.20
2019-02-20T21:26:09.575Z,10.90
2019-02-20T21:36:18.592Z,12.10
2019-02-20T21:46:45.187Z,12.43
2019-02-20T21:56:57.637Z,13.20
2019-02-20T22:07:40.921Z,13.10
2019-02-20T22:17:58.660Z,14.73
2019-02-20T22:28:14.383Z,12.97
2019-02-20T22:38:29.301Z,14.60
2019-02-20T22:48:41.260Z,14.03
2019-02-20T22:59:11.851Z,15.77
2019-02-20T23:09:44.579Z,14.60
2019-02-20T23:19:50.434Z,13.67
2019-02-20T23:29:56.482Z,16.27
2019-02-20T23:40:04.652Z,16.37
2019-02-20T23:50:09.524Z,15.60
